• Join FlightAware (Why Join?)
  • Login
  • US Flag 
01:35PM EDT


 

Airport Tracker/Info


-or-


 

Live Flight TrackerFlight Track Log ✈ EJM826 ✈ 19-Dec-2013 ✈ KHOU - KMSY

Flight Track Log - Related Links

Times and Time Zones

All times are in EST time to prevent confusion due to time zone crossing. See the EJM826 flight status page for this flight to view local times or setup timezone preferences in your user account.

Time Position Orientation Groundspeed Altitude Reporting Facility
EST Latitude Longitude Course Direction KTS MPH feet Rate Location/Type
04:01PM 29.6308 -95.2847 144° Southeast 133 153 700  Level Houston Center
04:01PM 29.6242 -95.2792 144° Southeast 151 174 1,100 2,460 Climbing Houston Center
04:02PM 29.5875 -95.2469 143° Southeast 208 239 3,300 2,460 Climbing Houston Center
04:02PM 29.5842 -95.2397 118° Southeast 198 228 3,700 3,240 Climbing Houston Center
04:03PM 29.5858 -95.1631 89° East 257 296 6,900 3,000 Climbing Houston Center
04:03PM 29.5847 -95.1678 255° West 247 284 6,800 2,520 Descending Houston Center
04:04PM 29.6031 -95.0697 78° East 269 310 9,900 2,760 Climbing Houston Center
04:05PM 29.6172 -94.9758 80° East 296 341 12,600 2,340 Climbing Houston Center
04:06PM 29.6342 -94.8772 79° East 313 360 14,800 2,040 Climbing Houston Center
04:07PM 29.6514 -94.7744 79° East 325 374 16,900 1,920 Climbing Houston Center
04:08PM 29.6731 -94.6403 79° East 353 406 18,800 1,740 Climbing Houston Center
04:10PM 29.6925 -94.5189 80° East 381 438 20,500 1,500 Climbing Houston Center
04:11PM 29.7119 -94.3942 80° East 395 455 21,900 1,500 Climbing Houston Center
04:12PM 29.7283 -94.2644 82° East 407 468 23,600 1,680 Climbing Houston Center
04:13PM 29.7469 -94.1175 82° East 419 482 25,500 1,560 Climbing Houston Center
04:14PM 29.7639 -93.9839 82° East 423 487 26,900 720 Climbing Houston Center
04:15PM 29.7819 -93.8431 82° East 445 512 27,000  Climbing Houston Center
04:16PM 29.8006 -93.6944 82° East 469 540 27,000  Level Houston Center
04:17PM 29.8242 -93.5119 81° East 483 556 27,000  Level Houston Center
04:18PM 29.8428 -93.3589 82° East 487 560 27,000  Level Houston Center
04:19PM 29.8600 -93.2081 82° East 483 556 27,000  Level Houston Center
04:20PM 29.8794 -93.0553 82° East 485 558 27,000  Level Houston Center
04:21PM 29.8969 -92.9039 82° East 483 556 27,000  Level Houston Center
04:22PM 29.9189 -92.7214 82° East 482 555 27,000  Level Houston Center
04:23PM 29.9372 -92.5683 82° East 483 556 27,000  Level Houston Center
04:24PM 29.9539 -92.4158 83° East 483 556 27,000  Level Houston Center
04:25PM 29.9711 -92.2631 83° East 482 555 27,000  Level Houston Center
04:26PM 29.9881 -92.1106 83° East 481 554 27,000  Level Houston Center
04:27PM 30.0092 -91.9250 82° East 486 559 27,000 -1,260 Level Houston Center
04:28PM 30.0275 -91.7689 82° East 490 564 24,500 -2,460 Descending Houston Center
04:29PM 30.0464 -91.6128 82° East 499 574 22,000 -2,520 Descending Houston Center
04:30PM 30.0617 -91.4567 84° East 495 570 19,300 -2,940 Descending Houston Center
04:31PM 30.0703 -91.3792 83° East 483 556 17,900 -2,760 Descending Houston Center
04:31PM 30.0828 -91.2875 81° East 468 539 16,600 -1,680 Descending Houston Center
04:31PM 30.0781 -91.3078 255° West 478 550 16,800 -2,400 Climbing Houston Center
04:32PM 30.0806 -91.1433 89° East 434 499 14,000 -2,520 Descending Houston Center
04:33PM 30.0794 -91.0522 91° East 394 453 12,400 -2,280 Descending Houston Center
04:33PM 30.0761 -91.0161 96° East 406 467 11,700 -2,280 Descending Houston Center
04:34PM 30.0722 -90.9300 93° East 380 437 10,100 -1,860 Descending Houston Center
04:34PM 30.0717 -90.8972 91° East 383 441 9,800 -1,200 Descending Houston Center
04:35PM 30.0692 -90.8122 92° East 297 342 8,800 -1,380 Descending Houston Center
04:35PM 30.0681 -90.7992 96° East 326 375 8,400 -2,040 Descending Houston Center
04:36PM 30.0644 -90.7164 93° East 289 333 6,800 -1,980 Descending Houston Center
04:36PM 30.0633 -90.7053 97° East 307 353 6,400 -1,980 Descending Houston Center
04:37PM 30.0558 -90.6278 96° East 279 321 4,800 -2,040 Descending Houston Center
04:37PM 30.0519 -90.5994 99° East 289 333 4,300 -840 Descending Houston Center
04:38PM 30.0514 -90.5464 91° East 254 292 4,000 -420 Descending Houston Center
04:39PM 30.0514 -90.5186 90° East 272 313 3,900 -720 Descending Houston Center
04:39PM 30.0406 -90.4603 102° East 231 266 3,200 -1,080 Descending Houston Center
04:40PM 30.0397 -90.4478 94° East 243 280 2,800 -780 Descending Houston Center
04:40PM 30.0242 -90.3983 110° East 210 242 2,500 -720 Descending Houston Center
04:41PM 30.0222 -90.3833 99° East 225 259 2,100 -1,080 Descending Houston Center
04:42PM 30.0089 -90.3331 107° East 195 224 1,000 -960 Descending Houston Center
04:42PM 30.0006 -90.3033 108° East 114 131 500 -720 Descending Houston Center
04:43PM 30.0003 -90.2978 93° East 148 170 300 -660 Descending Houston Center
04:45PM 29.9933 -90.2590 101° East  Level Estimated
04:52PM 29.9933 -90.2590 101° East  Level Estimated
04:53PM 29.9933 -90.2590 101° East  Level Estimated